createdAt,value
2019-06-07T00:02:35.745Z,17.10
2019-06-07T00:06:40.689Z,17.10
2019-06-07T00:10:45.520Z,17.10
2019-06-07T00:14:50.479Z,17.20
2019-06-07T00:18:55.339Z,17.10
2019-06-07T00:23:00.045Z,17.20
2019-06-07T00:27:05.182Z,17.10
2019-06-07T00:31:11.540Z,17.10
2019-06-07T00:35:19.387Z,17.00
2019-06-07T00:39:25.975Z,17.10
2019-06-07T00:43:29.887Z,17.00
2019-06-07T00:47:34.763Z,17.00
2019-06-07T00:51:50.153Z,16.90
2019-06-07T00:55:46.147Z,16.80
2019-06-07T00:59:51.217Z,16.90
2019-06-07T01:03:57.065Z,16.90
2019-06-07T01:08:04.470Z,16.80
2019-06-07T01:12:09.268Z,16.70
2019-06-07T01:16:16.152Z,16.70
2019-06-07T01:20:23.810Z,16.70
2019-06-07T01:24:28.182Z,16.50
2019-06-07T01:28:33.195Z,16.40
2019-06-07T01:32:38.005Z,16.30
2019-06-07T01:36:42.838Z,16.30
2019-06-07T01:40:47.550Z,16.20
2019-06-07T01:44:52.605Z,16.20
2019-06-07T01:48:57.667Z,16.20
2019-06-07T01:53:02.400Z,16.00
2019-06-07T01:57:07.522Z,16.00
2019-06-07T02:01:12.437Z,16.00
2019-06-07T02:05:19.123Z,15.90
2019-06-07T02:09:26.414Z,15.80
2019-06-07T02:13:30.808Z,15.80
2019-06-07T02:17:35.848Z,15.80
2019-06-07T02:21:40.673Z,15.70
2019-06-07T02:25:50.224Z,15.60
2019-06-07T02:29:52.037Z,15.50
2019-06-07T02:33:57.321Z,15.50
2019-06-07T02:38:02.104Z,15.50
2019-06-07T02:42:07.267Z,15.50
2019-06-07T02:46:30.417Z,15.50
2019-06-07T02:50:33.909Z,15.40
2019-06-07T02:54:40.255Z,15.40
2019-06-07T02:58:43.137Z,15.30
2019-06-07T03:02:47.954Z,15.00
2019-06-07T03:06:56.347Z,15.10
2019-06-07T03:11:03.085Z,15.10
2019-06-07T03:15:08.376Z,15.10
2019-06-07T03:19:21.164Z,15.10
2019-06-07T03:23:28.734Z,15.10
2019-06-07T03:27:41.510Z,15.00
2019-06-07T03:31:47.083Z,15.10
2019-06-07T03:35:48.689Z,15.00
2019-06-07T03:39:53.421Z,15.00
2019-06-07T03:43:58.337Z,15.10
2019-06-07T03:48:03.064Z,15.20
2019-06-07T03:52:07.936Z,15.00
2019-06-07T03:56:13.629Z,15.00
2019-06-07T04:00:20.103Z,15.10
2019-06-07T04:04:25.146Z,15.00
2019-06-07T04:08:30.780Z,15.20
2019-06-07T04:12:41.345Z,15.00
2019-06-07T04:16:44.746Z,15.10
2019-06-07T04:20:49.599Z,15.10
2019-06-07T04:24:54.580Z,15.00
2019-06-07T04:33:20.766Z,15.20
2019-06-07T04:37:28.490Z,15.20
2019-06-07T04:41:37.231Z,15.20
2019-06-07T04:45:50.691Z,15.30
2019-06-07T04:49:50.093Z,15.40
2019-06-07T04:53:54.811Z,15.30
2019-06-07T04:57:59.765Z,15.40
2019-06-07T05:02:04.664Z,15.10
2019-06-07T05:06:10.649Z,15.20
2019-06-07T05:10:15.382Z,15.30
2019-06-07T05:14:20.327Z,15.40
2019-06-07T05:18:25.183Z,15.30
2019-06-07T05:22:31.535Z,15.40
2019-06-07T05:26:39.219Z,15.50
2019-06-07T05:31:03.822Z,15.50
2019-06-07T05:34:51.512Z,15.60
2019-06-07T05:38:56.404Z,15.80
2019-06-07T05:43:01.753Z,15.90
2019-06-07T05:47:06.669Z,15.70
2019-06-07T05:51:11.679Z,15.90
2019-06-07T05:55:16.522Z,16.00
2019-06-07T05:59:21.446Z,16.00
2019-06-07T06:03:27.032Z,16.00
2019-06-07T06:07:32.267Z,16.20
2019-06-07T06:11:50.758Z,16.40
2019-06-07T06:15:55.946Z,16.60
2019-06-07T06:19:53.450Z,16.60
2019-06-07T06:23:58.100Z,16.50
2019-06-07T06:28:11.108Z,16.60
2019-06-07T06:32:41.127Z,16.80
2019-06-07T06:36:16.435Z,16.80
2019-06-07T06:40:22.240Z,17.00
2019-06-07T06:44:27.291Z,17.10
2019-06-07T06:48:32.208Z,17.20
2019-06-07T06:52:42.264Z,17.20
2019-06-07T06:56:45.656Z,17.30
2019-06-07T07:01:05.434Z,17.40
2019-06-07T07:04:58.576Z,17.50
2019-06-07T07:09:04.756Z,17.60
2019-06-07T07:13:09.676Z,17.50
2019-06-07T07:17:14.607Z,17.80
2019-06-07T07:21:19.598Z,17.70
2019-06-07T07:25:24.518Z,17.70
2019-06-07T07:29:29.477Z,17.90
2019-06-07T07:34:20.694Z,18.00
2019-06-07T07:37:41.068Z,18.20
2019-06-07T07:42:12.352Z,18.30
2019-06-07T07:45:59.066Z,18.40
2019-06-07T07:49:59.362Z,18.60
2019-06-07T07:54:10.926Z,18.60
2019-06-07T07:58:10.936Z,18.80
2019-06-07T08:02:15.793Z,18.80
2019-06-07T08:06:20.688Z,18.90
2019-06-07T08:10:25.609Z,19.10
2019-06-07T08:14:30.440Z,19.40
2019-06-07T08:18:35.526Z,19.50
2019-06-07T08:22:40.632Z,19.50
2019-06-07T08:27:10.499Z,19.60
2019-06-07T08:31:03.711Z,19.60
2019-06-07T08:35:03.306Z,19.80
2019-06-07T08:39:08.220Z,19.90
2019-06-07T08:43:20.884Z,19.80
2019-06-07T08:47:21.068Z,19.90
2019-06-07T08:51:26.570Z,20.10
2019-06-07T08:55:31.486Z,20.10
2019-06-07T08:59:36.405Z,20.30
2019-06-07T09:03:41.317Z,20.40
2019-06-07T09:07:46.201Z,20.50
2019-06-07T09:11:52.448Z,20.60
2019-06-07T09:16:03.574Z,20.70
2019-06-07T09:20:21.505Z,20.80
2019-06-07T09:24:12.871Z,21.00
2019-06-07T09:28:20.530Z,21.10
2019-06-07T09:32:25.377Z,21.20
2019-06-07T09:36:30.288Z,21.20
2019-06-07T09:40:35.212Z,21.30
2019-06-07T09:44:40.079Z,21.50
2019-06-07T09:49:12.148Z,21.70
2019-06-07T09:52:58.640Z,21.70
2019-06-07T09:57:01.685Z,21.70
2019-06-07T10:01:10.585Z,21.70
2019-06-07T10:05:14.349Z,21.90
2019-06-07T10:10:08.636Z,22.10
2019-06-07T10:13:26.080Z,22.20
2019-06-07T10:17:30.917Z,22.40
2019-06-07T10:21:35.833Z,22.40
2019-06-07T10:25:40.753Z,22.50
2019-06-07T10:29:45.665Z,22.60
2019-06-07T10:33:50.568Z,22.70
2019-06-07T10:37:58.088Z,22.80
2019-06-07T10:42:04.159Z,23.00
2019-06-07T10:46:09.908Z,23.10
2019-06-07T10:50:16.848Z,23.30
2019-06-07T10:54:29.452Z,23.60
2019-06-07T10:58:28.321Z,23.70
2019-06-07T11:02:33.270Z,23.80
2019-06-07T11:06:38.206Z,24.00
2019-06-07T11:10:43.128Z,24.20
2019-06-07T11:14:47.975Z,23.90
2019-06-07T11:18:52.857Z,24.10
2019-06-07T11:22:57.763Z,24.30
2019-06-07T11:27:02.600Z,24.30
2019-06-07T11:31:08.425Z,24.40
2019-06-07T11:35:15.424Z,24.70
2019-06-07T11:39:20.665Z,24.90
2019-06-07T11:43:25.806Z,25.00
2019-06-07T11:47:30.725Z,24.90
2019-06-07T11:51:35.568Z,25.30
2019-06-07T11:55:40.482Z,25.30
2019-06-07T11:59:45.512Z,25.40
2019-06-07T12:03:50.359Z,25.70
2019-06-07T12:07:57.154Z,25.90
2019-06-07T12:12:01.868Z,26.10
2019-06-07T12:16:06.800Z,26.40
2019-06-07T12:20:14.280Z,26.60
2019-06-07T12:24:19.837Z,27.00
2019-06-07T12:28:25.508Z,26.90
2019-06-07T12:32:30.407Z,27.10
2019-06-07T12:36:35.553Z,27.40
2019-06-07T12:40:40.445Z,27.60
2019-06-07T12:44:45.293Z,28.00
2019-06-07T12:48:50.220Z,28.40
2019-06-07T12:52:55.152Z,28.70
2019-06-07T12:57:00.017Z,28.90
2019-06-07T13:01:05.657Z,29.50
2019-06-07T13:05:11.005Z,29.80
2019-06-07T13:09:16.000Z,30.10
2019-06-07T13:13:22.389Z,30.50
2019-06-07T13:17:28.633Z,30.80
2019-06-07T13:21:34.176Z,31.20
2019-06-07T13:25:46.252Z,31.60
2019-06-07T13:29:45.629Z,32.10
2019-06-07T13:33:50.693Z,32.80
2019-06-07T13:37:59.294Z,33.20
2019-06-07T13:42:02.155Z,33.60
2019-06-07T13:46:07.066Z,33.90
2019-06-07T13:50:12.577Z,34.50
2019-06-07T13:54:18.556Z,35.10
2019-06-07T13:58:24.220Z,35.50
2019-06-07T14:02:29.864Z,35.90
2019-06-07T14:06:35.148Z,36.50
2019-06-07T14:10:40.080Z,36.70
2019-06-07T14:14:45.267Z,36.90
2019-06-07T14:18:50.106Z,37.00
2019-06-07T14:22:55.426Z,37.10
2019-06-07T14:27:06.449Z,37.10
2019-06-07T14:31:11.418Z,37.20
2019-06-07T14:35:20.853Z,37.40
2019-06-07T14:39:27.020Z,37.30
2019-06-07T14:43:33.965Z,37.80
2019-06-07T14:47:39.188Z,38.10
2019-06-07T14:51:44.008Z,37.90
2019-06-07T14:55:49.017Z,38.60
2019-06-07T14:59:53.996Z,38.70
2019-06-07T15:04:01.695Z,38.90
2019-06-07T15:08:06.674Z,38.80
2019-06-07T15:12:24.152Z,38.80
2019-06-07T15:16:18.983Z,38.80
2019-06-07T15:20:23.895Z,38.70
2019-06-07T15:24:32.562Z,38.70
2019-06-07T15:28:36.734Z,38.60
2019-06-07T15:32:41.857Z,38.80
2019-06-07T15:36:46.849Z,39.00
2019-06-07T15:40:51.760Z,39.20
2019-06-07T15:44:56.796Z,39.90
2019-06-07T15:49:01.673Z,39.90
2019-06-07T15:53:06.829Z,40.40
2019-06-07T15:57:11.746Z,41.30
2019-06-07T16:01:16.660Z,42.60
2019-06-07T16:05:21.773Z,42.80
2019-06-07T16:09:26.700Z,42.40
2019-06-07T16:13:32.508Z,43.30
2019-06-07T16:17:39.130Z,42.70
2019-06-07T16:21:45.464Z,42.30
2019-06-07T16:25:50.393Z,42.60
2019-06-07T16:29:55.318Z,42.80
2019-06-07T16:34:00.233Z,43.70
2019-06-07T16:38:05.366Z,44.10
2019-06-07T16:42:10.202Z,44.80
2019-06-07T16:46:15.379Z,44.30
2019-06-07T16:50:20.288Z,44.00
2019-06-07T16:54:25.146Z,44.30
2019-06-07T16:58:30.024Z,44.10
2019-06-07T17:02:34.955Z,44.00
2019-06-07T17:06:39.951Z,43.20
2019-06-07T17:10:44.848Z,41.50
2019-06-07T17:14:49.771Z,39.90
2019-06-07T17:18:54.660Z,39.20
2019-06-07T17:22:59.579Z,38.90
2019-06-07T17:27:04.516Z,38.20
2019-06-07T17:31:09.439Z,37.40
2019-06-07T17:35:14.703Z,37.20
2019-06-07T17:39:19.680Z,37.10
2019-06-07T17:43:24.541Z,37.00
2019-06-07T17:47:29.397Z,36.50
2019-06-07T17:51:34.387Z,36.00
2019-06-07T17:55:39.300Z,35.40
2019-06-07T17:59:44.381Z,34.80
2019-06-07T18:03:49.413Z,34.00
2019-06-07T18:07:55.255Z,33.90
2019-06-07T18:12:00.149Z,33.40
2019-06-07T18:16:05.520Z,33.40
2019-06-07T18:20:11.001Z,33.10
2019-06-07T18:24:15.940Z,33.00
2019-06-07T18:28:20.765Z,32.70
2019-06-07T18:32:25.599Z,32.40
2019-06-07T18:36:34.153Z,32.00
2019-06-07T18:40:39.492Z,31.80
2019-06-07T18:44:44.515Z,31.60
2019-06-07T18:48:50.583Z,31.30
2019-06-07T18:52:55.731Z,31.00
2019-06-07T18:57:00.929Z,30.90
2019-06-07T19:01:06.189Z,30.60
2019-06-07T19:05:11.981Z,30.30
2019-06-07T19:09:17.103Z,29.90
2019-06-07T19:13:22.171Z,29.40
2019-06-07T19:17:27.224Z,29.20
2019-06-07T19:21:32.567Z,29.30
2019-06-07T19:25:37.868Z,29.20
2019-06-07T19:29:42.796Z,29.30
2019-06-07T19:33:49.277Z,29.10
2019-06-07T19:37:55.757Z,29.00
2019-06-07T19:42:02.175Z,28.70
2019-06-07T19:46:07.236Z,28.30
2019-06-07T19:50:12.861Z,28.40
2019-06-07T19:54:17.868Z,28.30
2019-06-07T19:58:23.289Z,27.80
2019-06-07T20:02:28.212Z,27.80
2019-06-07T20:06:33.733Z,27.80
2019-06-07T20:10:38.709Z,27.80
2019-06-07T20:14:43.999Z,27.30
2019-06-07T20:18:48.965Z,25.90
2019-06-07T20:22:53.928Z,25.30
2019-06-07T20:27:00.293Z,25.10
2019-06-07T20:31:06.052Z,25.20
2019-06-07T20:35:12.965Z,25.10
2019-06-07T20:39:19.400Z,25.10
2019-06-07T20:43:24.715Z,24.90
2019-06-07T20:47:30.020Z,24.60
2019-06-07T20:52:22.033Z,24.70
2019-06-07T20:56:30.247Z,24.50
2019-06-07T21:00:35.303Z,24.50
2019-06-07T21:04:40.277Z,24.50
2019-06-07T21:08:45.199Z,24.40
2019-06-07T21:12:50.390Z,24.20
2019-06-07T21:16:55.608Z,23.60
2019-06-07T21:21:00.463Z,22.10
2019-06-07T21:25:07.251Z,21.10
2019-06-07T21:29:12.724Z,20.30
2019-06-07T21:33:17.645Z,20.00
2019-06-07T21:37:22.564Z,19.70
2019-06-07T21:41:27.491Z,19.10
2019-06-07T21:45:32.426Z,18.60
2019-06-07T21:49:37.258Z,18.30
2019-06-07T21:53:42.183Z,18.40
2019-06-07T21:57:47.035Z,18.20
2019-06-07T22:01:52.007Z,17.90
2019-06-07T22:05:56.957Z,17.90
2019-06-07T22:10:01.796Z,17.70
2019-06-07T22:14:08.249Z,17.40
2019-06-07T22:18:14.639Z,17.00
2019-06-07T22:22:19.558Z,17.00
2019-06-07T22:26:25.740Z,17.00
2019-06-07T22:30:30.908Z,17.10
2019-06-07T22:34:35.895Z,17.20
2019-06-07T22:38:40.778Z,17.00
2019-06-07T22:42:45.705Z,17.00
2019-06-07T22:46:50.857Z,16.90
2019-06-07T22:50:57.452Z,16.90
2019-06-07T22:55:03.684Z,16.70
2019-06-07T22:59:12.356Z,16.60
2019-06-07T23:03:16.658Z,16.60
2019-06-07T23:07:21.813Z,16.50
2019-06-07T23:11:26.728Z,16.40
2019-06-07T23:15:31.736Z,16.50
2019-06-07T23:19:36.625Z,16.50
2019-06-07T23:23:41.559Z,16.50
2019-06-07T23:27:46.453Z,16.60
2019-06-07T23:31:51.363Z,16.50
2019-06-07T23:35:56.569Z,16.50
2019-06-07T23:40:01.477Z,16.40
2019-06-07T23:44:06.619Z,16.30
2019-06-07T23:48:11.475Z,16.30
2019-06-07T23:52:17.846Z,16.30
2019-06-07T23:56:22.997Z,16.30
